Time;durP1;ratioP1;P1;durP2;ratioP2;P2;SDS_P1;SDS_P2;PMS_P1;PMS_P2;Temp;Humidity;BMP_temperature;BMP_pressure;BME280_temperature;BME280_humidity;BME280_pressure;Samples;Min_cycle;Max_cycle;Signal;HPM_P1;HPM_P2
2023/12/05 00:02:03;;;;;;;;;;;;;;;;;;5033277;28;19925;-66
2023/12/05 00:04:30;;;;;;;;;;;5.10;99.90;;;;;;5034311;28;19930;-67
2023/12/05 00:06:57;;;;;;;;;;;;;;;;;;5026460;28;20160;-66
2023/12/05 00:09:25;;;;;;;;;;;5.10;99.90;;;;;;5033169;28;20573;-67
2023/12/05 00:11:53;;;;;;;;;;;;;;;;;;5033450;28;19925;-67
2023/12/05 00:14:20;;;;;;;;;;;;;;;;;;5033841;28;20292;-68
2023/12/05 00:16:46;;;;;;;;;;;;;;;;;;5032733;28;19933;-68
2023/12/05 00:19:13;;;;;;;;;;;5.10;99.90;;;;;;5030652;28;20338;-68
2023/12/05 00:21:40;;;;;;;;;;;;;;;;;;5033938;28;20454;-68
2023/12/05 00:24:07;;;;;;;;;;;;;;;;;;5033040;28;19933;-68
2023/12/05 00:26:35;;;;;;;;;;;5.20;99.90;;;;;;5028583;28;20285;-68
2023/12/05 00:29:02;;;;;;;;;;;5.10;99.90;;;;;;5032789;28;19960;-67
2023/12/05 00:31:29;;;;;;;;;;;5.20;99.90;;;;;;5032883;28;20347;-67
2023/12/05 00:33:56;;;;;;;;;;;5.20;99.90;;;;;;5032952;28;19929;-66
2023/12/05 00:36:22;;;;;;;;;;;5.20;99.90;;;;;;5032136;28;20343;-66
2023/12/05 00:38:49;;;;;;;;;;;5.20;99.90;;;;;;5045154;28;19932;-67
2023/12/05 00:41:16;;;;;;;;;;;5.20;99.90;;;;;;5033129;28;19932;-67
2023/12/05 00:43:44;;;;;;;;;;;5.20;99.90;;;;;;5031910;28;20564;-67
2023/12/05 00:46:11;;;;;;;;;;;5.20;99.90;;;;;;5031839;28;19925;-67
2023/12/05 00:48:37;;;;;;;;;;;5.30;99.90;;;;;;5031247;28;20450;-67
2023/12/05 00:51:05;;;;;;;;;;;5.30;99.90;;;;;;5031856;28;19925;-67
2023/12/05 00:53:31;;;;;;;;;;;5.30;99.90;;;;;;5033101;28;19925;-67
2023/12/05 00:55:58;;;;;;;;;;;5.30;99.90;;;;;;5038188;28;20405;-67
2023/12/05 00:58:25;;;;;;;;;;;5.30;99.90;;;;;;5031916;28;20367;-66
2023/12/05 01:00:53;;;;;;;;;;;5.30;99.90;;;;;;5026314;28;19929;-66
2023/12/05 01:03:20;;;;;;;;;;;5.30;99.90;;;;;;5031869;28;19925;-67
2023/12/05 01:05:47;;;;;;;;;;;5.30;99.90;;;;;;5031627;28;20308;-68
2023/12/05 01:08:13;;;;;;;;;;;5.30;99.90;;;;;;5030817;28;19932;-68
2023/12/05 01:10:40;;;;;;;;;;;5.30;99.90;;;;;;5031693;28;19925;-68
2023/12/05 01:13:07;;;;;;;;;;;5.30;99.90;;;;;;5026383;28;20347;-67
2023/12/05 01:15:34;;;;;;;;;;;5.30;99.90;;;;;;5031873;28;19925;-67
2023/12/05 01:18:03;;;;;;;;;;;5.30;99.90;;;;;;5031683;28;20015;-67
2023/12/05 01:20:30;;;;;;;;;;;5.40;99.90;;;;;;5031420;28;19979;-66
2023/12/05 01:22:57;;;;;;;;;;;5.40;99.90;;;;;;5030779;28;19925;-67
2023/12/05 01:25:23;;;;;;;;;;;5.40;99.90;;;;;;5031722;28;19925;-66
2023/12/05 01:27:50;;;;;;;;;;;5.30;99.90;;;;;;5030786;28;19925;-66
2023/12/05 01:30:17;;;;;;;;;;;5.40;99.90;;;;;;5032539;28;19929;-66
2023/12/05 01:32:44;;;;;;;;;;;5.40;99.90;;;;;;5030611;28;19940;-68
2023/12/05 01:35:12;;;;;;;;;;;5.40;99.90;;;;;;5029115;28;19925;-68
2023/12/05 01:37:39;;;;;;;;;;;5.40;99.90;;;;;;5031492;28;19929;-67
2023/12/05 01:40:06;;;;;;;;;;;5.40;99.90;;;;;;5031610;28;19929;-68
2023/12/05 01:42:35;;;;;;;;;;;5.40;99.90;;;;;;5031180;28;20380;-68
2023/12/05 01:45:03;;;;;;;;;;;5.40;99.90;;;;;;5030472;28;20006;-68
2023/12/05 01:47:30;;;;;;;;;;;5.40;99.90;;;;;;5038652;28;19925;-68
2023/12/05 01:49:56;;;;;;;;;;;5.40;99.90;;;;;;5021646;28;19925;-68
2023/12/05 01:52:25;;;;;;;;;;;5.40;99.90;;;;;;5030073;28;19925;-68
2023/12/05 01:54:51;;;;;;;;;;;5.40;99.90;;;;;;5031632;28;19925;-68
2023/12/05 01:57:19;;;;;;;;;;;5.40;99.90;;;;;;5029980;28;19925;-68
2023/12/05 01:59:46;;;;;;;;;;;5.40;99.90;;;;;;5030870;28;20384;-68
2023/12/05 02:02:13;;;;;;;;;;;5.40;99.90;;;;;;5030444;28;19929;-67
2023/12/05 02:04:40;;;;;;;;;;;5.50;99.90;;;;;;5031218;28;19975;-67
2023/12/05 02:07:07;;;;;;;;;;;5.40;99.90;;;;;;5027489;28;19925;-67
2023/12/05 02:09:37;;;;;;;;;;;5.50;99.90;;;;;;5030523;28;19925;-67
2023/12/05 02:12:04;;;;;;;;;;;5.40;99.90;;;;;;5030883;28;19931;-67
2023/12/05 02:14:31;;;;;;;;;;;5.40;99.90;;;;;;5031519;28;19959;-67
2023/12/05 02:17:04;;;;;;;;;;;5.40;99.90;;;;;;5030489;28;19925;-67
2023/12/05 02:19:42;;;;;;;;;;;5.40;99.90;;;;;;5032097;28;19934;-67
2023/12/05 02:22:12;;;;;;;;;;;5.40;99.90;;;;;;5031203;28;19972;-67
2023/12/05 02:24:47;;;;;;;;;;;5.40;99.90;;;;;;5035044;28;20030;-67
2023/12/05 02:27:17;;;;;;;;;;;5.40;99.90;;;;;;5034695;28;19925;-68
2023/12/05 02:29:51;;;;;;;;;;;5.30;99.90;;;;;;5034441;28;20016;-67
2023/12/05 02:32:19;;;;;;;;;;;5.30;99.90;;;;;;5030236;28;19929;-68
2023/12/05 02:34:47;;;;;;;;;;;5.40;99.90;;;;;;5034689;28;19937;-68
2023/12/05 02:37:17;;;;;;;;;;;5.40;99.90;;;;;;5041875;28;20379;-67
2023/12/05 02:39:47;;;;;;;;;;;5.30;99.90;;;;;;5040688;28;19964;-67
2023/12/05 02:42:14;;;;;;;;;;;5.30;99.90;;;;;;5034632;28;19925;-68
2023/12/05 02:44:42;;;;;;;;;;;5.30;99.90;;;;;;5033853;28;21863;-68
2023/12/05 02:47:11;;;;;;;;;;;5.30;99.90;;;;;;5035063;28;20023;-68
2023/12/05 02:49:38;;;;;;;;;;;5.30;99.90;;;;;;5032955;28;19925;-68
2023/12/05 02:52:05;;;;;;;;;;;5.30;99.90;;;;;;5033774;28;19986;-68
2023/12/05 02:54:32;;;;;;;;;;;5.30;99.90;;;;;;5040384;28;19925;-68
2023/12/05 02:56:59;;;;;;;;;;;5.30;99.90;;;;;;5033497;28;19936;-68
2023/12/05 02:59:26;;;;;;;;;;;5.30;99.90;;;;;;5034654;28;19971;-68
2023/12/05 03:01:52;;;;;;;;;;;5.30;99.90;;;;;;5028610;28;20304;-67
2023/12/05 03:04:21;;;;;;;;;;;5.30;99.90;;;;;;5034209;28;19929;-67
2023/12/05 03:06:47;;;;;;;;;;;5.30;99.90;;;;;;5034450;28;19975;-67
2023/12/05 03:09:14;;;;;;;;;;;5.30;99.90;;;;;;5035169;28;19964;-67
2023/12/05 03:11:41;;;;;;;;;;;5.30;99.90;;;;;;5035267;28;19971;-67
2023/12/05 03:14:08;;;;;;;;;;;5.30;99.90;;;;;;5034986;28;19983;-67
2023/12/05 03:16:34;;;;;;;;;;;5.30;99.90;;;;;;5034314;28;20438;-67
2023/12/05 03:19:01;;;;;;;;;;;5.30;99.90;;;;;;5034468;28;20494;-67
2023/12/05 03:21:29;;;;;;;;;;;5.30;99.90;;;;;;5032473;28;19961;-67
2023/12/05 03:23:56;;;;;;;;;;;5.20;99.90;;;;;;5033651;28;20015;-67
2023/12/05 03:26:23;;;;;;;;;;;5.30;99.90;;;;;;5033514;28;19926;-67
2023/12/05 03:28:50;;;;;;;;;;;5.20;99.90;;;;;;5033007;28;19929;-67
2023/12/05 03:31:17;;;;;;;;;;;5.20;99.90;;;;;;5034232;28;19995;-67
2023/12/05 03:33:44;;;;;;;;;;;5.20;99.90;;;;;;5034067;28;19925;-67
2023/12/05 03:36:11;;;;;;;;;;;5.20;99.90;;;;;;5032723;28;19929;-67
2023/12/05 03:38:40;;;;;;;;;;;5.20;99.90;;;;;;5032746;28;19925;-67
2023/12/05 03:41:07;;;;;;;;;;;5.20;99.90;;;;;;5032883;28;19960;-68
2023/12/05 03:43:34;;;;;;;;;;;5.10;99.90;;;;;;5033157;28;19934;-67
2023/12/05 03:46:01;;;;;;;;;;;5.10;99.90;;;;;;5034181;28;20281;-67
2023/12/05 03:48:28;;;;;;;;;;;5.10;99.90;;;;;;5032358;28;19925;-68
2023/12/05 03:50:55;;;;;;;;;;;5.10;99.90;;;;;;5033417;28;19955;-67
2023/12/05 03:53:22;;;;;;;;;;;5.10;99.90;;;;;;5032297;28;19979;-67
2023/12/05 03:55:50;;;;;;;;;;;5.10;99.90;;;;;;5029574;28;19925;-67
2023/12/05 03:58:17;;;;;;;;;;;5.10;99.90;;;;;;5025856;28;20457;-67
2023/12/05 04:00:44;;;;;;;;;;;5.10;99.90;;;;;;5033682;28;19971;-67
2023/12/05 04:03:11;;;;;;;;;;;5.10;99.90;;;;;;5040394;28;20386;-68
2023/12/05 04:05:38;;;;;;;;;;;5.10;99.90;;;;;;5030813;28;19979;-67
2023/12/05 04:08:05;;;;;;;;;;;5.00;99.90;;;;;;5033227;28;19964;-68
2023/12/05 04:10:32;;;;;;;;;;;5.00;99.90;;;;;;5032445;28;19979;-68
2023/12/05 04:13:00;;;;;;;;;;;5.10;99.90;;;;;;5032716;28;19925;-67
2023/12/05 04:15:27;;;;;;;;;;;5.00;99.90;;;;;;5031887;28;19979;-67
2023/12/05 04:17:54;;;;;;;;;;;5.00;99.90;;;;;;5032636;28;20059;-68
2023/12/05 04:20:21;;;;;;;;;;;5.00;99.90;;;;;;5030931;28;20139;-67
2023/12/05 04:22:48;;;;;;;;;;;5.00;99.90;;;;;;5032458;28;19925;-67
2023/12/05 04:25:15;;;;;;;;;;;5.00;99.90;;;;;;5032847;28;19925;-68
2023/12/05 04:27:42;;;;;;;;;;;5.00;99.90;;;;;;5031139;28;19925;-68
2023/12/05 04:30:11;;;;;;;;;;;5.00;99.90;;;;;;5032435;28;20035;-68
2023/12/05 04:32:38;;;;;;;;;;;5.00;99.90;;;;;;5032926;28;19929;-67
2023/12/05 04:35:05;;;;;;;;;;;5.00;99.90;;;;;;5033146;28;19925;-68
2023/12/05 04:37:32;;;;;;;;;;;5.00;99.90;;;;;;5033401;28;19929;-67
2023/12/05 04:39:58;;;;;;;;;;;5.00;99.90;;;;;;5032516;28;19925;-67
2023/12/05 04:42:25;;;;;;;;;;;5.00;99.90;;;;;;5031272;28;19925;-67
2023/12/05 04:44:52;;;;;;;;;;;4.90;99.90;;;;;;5032031;28;19982;-67
2023/12/05 04:47:20;;;;;;;;;;;4.90;99.90;;;;;;5030433;28;19971;-67
2023/12/05 04:49:47;;;;;;;;;;;4.90;99.90;;;;;;5031990;28;20387;-67
2023/12/05 04:52:14;;;;;;;;;;;4.80;99.90;;;;;;5030832;28;19932;-67
2023/12/05 04:54:40;;;;;;;;;;;4.80;99.90;;;;;;5033121;28;19925;-67
2023/12/05 04:57:07;;;;;;;;;;;4.90;99.90;;;;;;5031103;28;20011;-67
2023/12/05 04:59:34;;;;;;;;;;;4.80;99.90;;;;;;5032536;28;19995;-67
2023/12/05 05:02:01;;;;;;;;;;;4.80;99.90;;;;;;5030694;28;19932;-69
2023/12/05 05:04:29;;;;;;;;;;;4.80;99.90;;;;;;5032356;28;19990;-67
2023/12/05 05:06:56;;;;;;;;;;;4.80;99.90;;;;;;5029549;28;19925;-67
2023/12/05 05:09:22;;;;;;;;;;;4.70;99.90;;;;;;5032160;28;20391;-67
2023/12/05 05:11:49;;;;;;;;;;;4.70;99.90;;;;;;5032081;28;19929;-67
2023/12/05 05:14:16;;;;;;;;;;;4.70;99.90;;;;;;5032295;28;19979;-68
2023/12/05 05:16:42;;;;;;;;;;;4.70;99.90;;;;;;5030967;28;19926;-69
2023/12/05 05:19:09;;;;;;;;;;;4.70;99.90;;;;;;5032128;28;19932;-67
2023/12/05 05:21:37;;;;;;;;;;;4.70;99.90;;;;;;5030717;28;20396;-68
2023/12/05 05:24:04;;;;;;;;;;;4.60;99.90;;;;;;5030837;28;19925;-67
2023/12/05 05:26:31;;;;;;;;;;;4.60;99.90;;;;;;5032119;28;19931;-68
2023/12/05 05:28:58;;;;;;;;;;;4.60;99.90;;;;;;5031491;28;19932;-68
2023/12/05 05:31:25;;;;;;;;;;;4.60;99.90;;;;;;5030097;28;19925;-68
2023/12/05 05:33:51;;;;;;;;;;;4.70;99.90;;;;;;5030145;28;21273;-68
2023/12/05 05:36:18;;;;;;;;;;;4.60;99.90;;;;;;5031353;28;19987;-68
2023/12/05 05:38:46;;;;;;;;;;;4.60;99.90;;;;;;5031088;28;20420;-68
2023/12/05 05:41:13;;;;;;;;;;;4.60;99.90;;;;;;5030555;28;19925;-68
2023/12/05 05:43:40;;;;;;;;;;;4.60;99.90;;;;;;5031780;28;19932;-69
2023/12/05 05:46:07;;;;;;;;;;;4.60;99.90;;;;;;5027831;28;19933;-68
2023/12/05 05:48:33;;;;;;;;;;;4.60;99.90;;;;;;5031643;28;20277;-68
2023/12/05 05:51:00;;;;;;;;;;;4.70;99.90;;;;;;5031981;28;20055;-69
2023/12/05 05:53:27;;;;;;;;;;;4.60;99.90;;;;;;5032150;28;19932;-69
2023/12/05 05:55:55;;;;;;;;;;;4.60;99.90;;;;;;5031006;28;19929;-68
2023/12/05 05:58:22;;;;;;;;;;;4.60;99.90;;;;;;5030688;28;19925;-68
2023/12/05 06:00:48;;;;;;;;;;;4.60;99.90;;;;;;5033203;28;19974;-68
2023/12/05 06:03:15;;;;;;;;;;;4.50;99.90;;;;;;5031440;28;19978;-68
2023/12/05 06:05:42;;;;;;;;;;;4.60;99.90;;;;;;5029187;28;20304;-69
2023/12/05 06:08:09;;;;;;;;;;;4.50;99.90;;;;;;5029751;28;20313;-70
2023/12/05 06:10:36;;;;;;;;;;;4.50;99.90;;;;;;5031663;28;20291;-68
2023/12/05 06:13:04;;;;;;;;;;;4.50;99.90;;;;;;5031562;28;19929;-68
2023/12/05 06:15:31;;;;;;;;;;;4.50;99.90;;;;;;5031249;28;20475;-68
2023/12/05 06:17:58;;;;;;;;;;;4.50;99.90;;;;;;5037936;28;20011;-68
2023/12/05 06:20:24;;;;;;;;;;;4.50;99.90;;;;;;5051880;28;19928;-68
2023/12/05 06:22:51;;;;;;;;;;;4.50;99.90;;;;;;5026383;28;19956;-68
2023/12/05 06:25:18;;;;;;;;;;;4.50;99.90;;;;;;5023317;28;19929;-68
2023/12/05 06:27:46;;;;;;;;;;;4.50;99.90;;;;;;5021568;28;19975;-68
2023/12/05 06:30:15;;;;;;;;;;;4.50;99.90;;;;;;5025594;28;19965;-69
2023/12/05 06:32:42;;;;;;;;;;;4.50;99.90;;;;;;5031134;28;19925;-69
2023/12/05 06:35:18;;;;;;;;;;;4.50;99.90;;;;;;5023882;28;19948;-68
2023/12/05 06:37:45;;;;;;;;;;;4.60;99.90;;;;;;5028756;28;19927;-68
2023/12/05 06:40:13;;;;;;;;;;;4.60;99.90;;;;;;5026232;28;19929;-68
2023/12/05 06:42:41;;;;;;;;;;;4.60;99.90;;;;;;5035466;22;19925;-68
2023/12/05 06:45:09;;;;;;;;;;;4.60;99.90;;;;;;5034686;28;20316;-68
2023/12/05 06:47:37;;;;;;;;;;;4.60;99.90;;;;;;5040322;22;19956;-68
2023/12/05 06:50:10;;;;;;;;;;;4.60;99.90;;;;;;5044105;28;19987;-68
2023/12/05 06:52:37;;;;;;;;;;;4.50;99.90;;;;;;5045527;28;19931;-68
2023/12/05 06:55:04;;;;;;;;;;;4.50;99.90;;;;;;5039077;28;20078;-69
2023/12/05 06:57:31;;;;;;;;;;;4.50;99.90;;;;;;5036331;28;19933;-69
2023/12/05 06:59:58;;;;;;;;;;;4.50;99.90;;;;;;5040012;28;20449;-68
2023/12/05 07:02:25;;;;;;;;;;;4.50;99.90;;;;;;5019660;28;19933;-69
2023/12/05 07:04:57;;;;;;;;;;;4.60;99.90;;;;;;5008711;28;19979;-68
2023/12/05 07:07:24;;;;;;;;;;;4.60;99.90;;;;;;5018860;28;19940;-68
2023/12/05 07:09:51;;;;;;;;;;;4.60;99.90;;;;;;5050948;28;19925;-69
2023/12/05 07:12:18;;;;;;;;;;;4.70;99.90;;;;;;5043243;28;19931;-69
2023/12/05 07:14:45;;;;;;;;;;;4.70;99.90;;;;;;5046187;28;19925;-68
2023/12/05 07:17:12;;;;;;;;;;;4.70;99.90;;;;;;5043327;28;19924;-68
2023/12/05 07:19:39;;;;;;;;;;;4.70;99.90;;;;;;5034810;28;19929;-69
2023/12/05 07:22:07;;;;;;;;;;;4.70;99.90;;;;;;5031110;28;19933;-67
2023/12/05 07:24:34;;;;;;;;;;;4.70;99.90;;;;;;5019178;28;19933;-68
2023/12/05 07:27:01;;;;;;;;;;;4.60;99.90;;;;;;5019514;28;19933;-69
2023/12/05 07:29:28;;;;;;;;;;;4.60;99.90;;;;;;5024461;28;19995;-66
2023/12/05 07:31:55;;;;;;;;;;;4.70;99.90;;;;;;5047881;28;19925;-67
2023/12/05 07:34:22;;;;;;;;;;;4.60;99.90;;;;;;5050265;28;19929;-68
2023/12/05 07:36:48;;;;;;;;;;;4.60;99.90;;;;;;5045514;28;19979;-68
2023/12/05 07:39:17;;;;;;;;;;;4.60;99.90;;;;;;5037248;28;19935;-68
2023/12/05 07:41:43;;;;;;;;;;;4.60;99.90;;;;;;5047474;28;20285;-67
2023/12/05 07:44:11;;;;;;;;;;;4.50;99.90;;;;;;5055061;28;20315;-68
2023/12/05 07:46:41;;;;;;;;;;;4.60;99.90;;;;;;5048965;28;19986;-68
2023/12/05 07:49:08;;;;;;;;;;;4.60;99.90;;;;;;5040896;28;19925;-67
2023/12/05 07:51:35;;;;;;;;;;;4.60;99.90;;;;;;5042117;28;19933;-68
2023/12/05 07:54:01;;;;;;;;;;;4.60;99.90;;;;;;5049812;28;19932;-67
2023/12/05 07:56:30;;;;;;;;;;;4.60;99.90;;;;;;5058695;28;19925;-67
2023/12/05 07:58:56;;;;;;;;;;;4.70;99.90;;;;;;5041886;28;19968;-67
2023/12/05 08:01:23;;;;;;;;;;;4.60;99.90;;;;;;5051160;28;19947;-67
2023/12/05 08:03:50;;;;;;;;;;;4.50;99.90;;;;;;5050291;28;19979;-68
2023/12/05 08:06:17;;;;;;;;;;;4.50;99.90;;;;;;5047846;28;19982;-67
2023/12/05 08:08:43;;;;;;;;;;;4.60;99.90;;;;;;5060521;28;19971;-67
2023/12/05 08:11:11;;;;;;;;;;;4.70;99.90;;;;;;5038504;28;19971;-67
2023/12/05 08:13:39;;;;;;;;;;;4.70;99.90;;;;;;5047863;28;20337;-67
2023/12/05 08:16:07;;;;;;;;;;;4.60;99.90;;;;;;5052642;28;19924;-68
2023/12/05 08:18:33;;;;;;;;;;;4.70;99.90;;;;;;5039768;28;19925;-68
2023/12/05 08:21:00;;;;;;;;;;;4.60;99.90;;;;;;5040805;28;19968;-68
2023/12/05 08:23:27;;;;;;;;;;;4.60;99.90;;;;;;5044038;28;19990;-67
2023/12/05 08:25:54;;;;;;;;;;;4.60;99.90;;;;;;5085898;22;19979;-67
2023/12/05 08:28:20;;;;;;;;;;;4.70;99.90;;;;;;5028698;28;19925;-66
2023/12/05 08:30:49;;;;;;;;;;;4.70;99.90;;;;;;5030540;28;19933;-65
2023/12/05 08:33:15;;;;;;;;;;;4.70;99.90;;;;;;5029996;28;20020;-66
2023/12/05 08:35:42;;;;;;;;;;;4.80;99.90;;;;;;5038234;28;19928;-66
2023/12/05 08:38:09;;;;;;;;;;;4.70;99.90;;;;;;5046647;28;20335;-68
2023/12/05 08:40:36;;;;;;;;;;;4.70;99.90;;;;;;5051338;28;20457;-69
2023/12/05 08:43:04;;;;;;;;;;;4.70;99.90;;;;;;5050284;28;19982;-67
2023/12/05 08:45:30;;;;;;;;;;;4.70;99.90;;;;;;5043333;28;20403;-68
2023/12/05 08:47:59;;;;;;;;;;;4.80;99.90;;;;;;5047132;28;20008;-67
2023/12/05 08:50:26;;;;;;;;;;;4.90;99.90;;;;;;5050401;22;19925;-67
2023/12/05 08:52:52;;;;;;;;;;;4.90;99.90;;;;;;5045234;28;19951;-67
2023/12/05 08:55:19;;;;;;;;;;;4.90;99.90;;;;;;5052339;28;19929;-67
2023/12/05 08:57:49;;;;;;;;;;;4.90;99.90;;;;;;5041987;28;19940;-67
2023/12/05 09:00:16;;;;;;;;;;;4.90;99.90;;;;;;5043306;28;19978;-67
2023/12/05 09:02:43;;;;;;;;;;;5.00;99.90;;;;;;5049607;28;19931;-67
2023/12/05 09:05:11;;;;;;;;;;;5.00;99.90;;;;;;5046321;28;19932;-67
2023/12/05 09:07:39;;;;;;;;;;;5.00;99.90;;;;;;5049069;28;19931;-67
2023/12/05 09:10:06;;;;;;;;;;;5.10;99.90;;;;;;5045375;28;19924;-66
2023/12/05 09:12:33;;;;;;;;;;;5.10;99.90;;;;;;5058727;28;19924;-77
2023/12/05 09:15:00;;;;;;;;;;;5.10;99.90;;;;;;5046969;28;19925;-78
2023/12/05 09:17:28;;;;;;;;;;;5.10;99.90;;;;;;5063139;28;19925;-69
2023/12/05 09:19:54;;;;;;;;;;;5.00;99.90;;;;;;5044174;28;20024;-68
2023/12/05 09:22:23;;;;;;;;;;;5.20;99.90;;;;;;5045720;28;19952;-68
2023/12/05 09:24:49;;;;;;;;;;;5.20;99.90;;;;;;5048133;28;19932;-70
2023/12/05 09:27:16;;;;;;;;;;;5.20;99.90;;;;;;5044436;28;19932;-70
2023/12/05 09:29:43;;;;;;;;;;;5.20;99.90;;;;;;5048305;28;20431;-69
2023/12/05 09:32:10;;;;;;;;;;;5.20;99.90;;;;;;5034560;28;19979;-70
2023/12/05 09:34:37;;;;;;;;;;;5.20;99.90;;;;;;5043837;28;19925;-69
2023/12/05 09:37:03;;;;;;;;;;;5.20;99.90;;;;;;5046075;28;19940;-71
2023/12/05 09:39:32;;;;;;;;;;;5.20;99.90;;;;;;5045952;28;19925;-69
2023/12/05 09:42:03;;;;;;;;;;;5.20;99.90;;;;;;5047345;28;19929;-65
2023/12/05 09:44:32;;;;;;;;;;;5.20;99.90;;;;;;5037306;28;20450;-66
2023/12/05 09:47:01;;;;;;;;;;;5.20;99.90;;;;;;5038799;28;19929;-66
2023/12/05 09:49:28;;;;;;;;;;;5.10;99.90;;;;;;5037182;28;19972;-66
2023/12/05 09:51:55;;;;;;;;;;;5.10;99.90;;;;;;5043055;28;19937;-67
2023/12/05 09:54:25;;;;;;;;;;;5.10;99.90;;;;;;5044316;28;20264;-70
2023/12/05 09:56:53;;;;;;;;;;;5.10;99.90;;;;;;5048178;28;19925;-70
2023/12/05 09:59:20;;;;;;;;;;;5.10;99.90;;;;;;5045732;28;19964;-70
2023/12/05 10:01:46;;;;;;;;;;;5.10;99.90;;;;;;5043713;28;19929;-70
2023/12/05 10:04:17;;;;;;;;;;;5.00;99.90;;;;;;5045054;28;19987;-70
2023/12/05 10:06:44;;;;;;;;;;;5.00;99.90;;;;;;5037393;28;20395;-70
2023/12/05 10:09:11;;;;;;;;;;;4.90;99.90;;;;;;5046593;28;19932;-69
2023/12/05 10:11:38;;;;;;;;;;;4.90;99.90;;;;;;5050151;28;19954;-69
2023/12/05 10:14:07;;;;;;;;;;;4.80;99.90;;;;;;5049010;28;19952;-69
2023/12/05 10:16:34;;;;;;;;;;;4.80;99.90;;;;;;5057641;28;20465;-69
2023/12/05 10:19:01;;;;;;;;;;;4.80;99.90;;;;;;5042855;28;20330;-69
2023/12/05 10:21:28;;;;;;;;;;;4.80;99.90;;;;;;5047172;28;20295;-70
2023/12/05 10:23:55;;;;;;;;;;;4.70;99.90;;;;;;5050669;28;20034;-66
2023/12/05 10:26:22;;;;;;;;;;;4.80;99.90;;;;;;5047213;28;19978;-68
2023/12/05 10:28:50;;;;;;;;;;;4.80;99.90;;;;;;5043495;28;20122;-70
2023/12/05 10:31:19;;;;;;;;;;;4.80;99.90;;;;;;5046230;28;20019;-71
2023/12/05 10:33:46;;;;;;;;;;;4.70;99.90;;;;;;5039461;28;19925;-68
2023/12/05 10:36:14;;;;;;;;;;;4.70;99.90;;;;;;5048759;28;19925;-68
2023/12/05 10:38:42;;;;;;;;;;;4.60;99.90;;;;;;5046646;28;19924;-69
2023/12/05 10:41:09;;;;;;;;;;;4.70;99.90;;;;;;5053654;28;19928;-69
2023/12/05 10:43:36;;;;;;;;;;;4.70;99.90;;;;;;5058777;28;20003;-71
2023/12/05 10:46:05;;;;;;;;;;;4.60;99.90;;;;;;5053633;28;20002;-71
2023/12/05 10:48:33;;;;;;;;;;;4.70;99.90;;;;;;5054406;28;19937;-68
2023/12/05 10:51:00;;;;;;;;;;;4.80;99.90;;;;;;5048475;28;19926;-69
2023/12/05 10:53:27;;;;;;;;;;;4.70;99.90;;;;;;5053731;28;20021;-70
2023/12/05 10:55:54;;;;;;;;;;;4.80;99.90;;;;;;5049102;28;19982;-70
2023/12/05 10:58:21;;;;;;;;;;;4.70;99.90;;;;;;5043718;28;19932;-70
2023/12/05 11:00:49;;;;;;;;;;;4.70;99.90;;;;;;5048985;28;19925;-70
2023/12/05 11:03:16;;;;;;;;;;;4.70;99.90;;;;;;5048382;28;19968;-70
2023/12/05 11:05:44;;;;;;;;;;;4.70;99.90;;;;;;5047361;28;19931;-72
2023/12/05 11:08:11;;;;;;;;;;;4.60;99.90;;;;;;5056564;28;19932;-70
2023/12/05 11:10:38;;;;;;;;;;;4.70;99.90;;;;;;5051132;28;19925;-69
2023/12/05 11:13:05;;;;;;;;;;;4.70;99.90;;;;;;5050461;28;19933;-68
2023/12/05 11:15:35;;;;;;;;;;;4.60;99.90;;;;;;5050487;28;19924;-70
2023/12/05 11:18:05;;;;;;;;;;;4.60;99.90;;;;;;5053628;28;19933;-69
2023/12/05 11:20:50;;;;;;;;;;;4.60;99.90;;;;;;5049831;28;19924;-70
2023/12/05 11:23:28;;;;;;;;;;;4.60;99.90;;;;;;5048672;28;19933;-69
2023/12/05 11:26:00;;;;;;;;;;;4.60;99.90;;;;;;5055242;28;19968;-70
2023/12/05 11:28:41;;;;;;;;;;;4.50;99.90;;;;;;5052211;28;19972;-70
2023/12/05 11:31:14;;;;;;;;;;;4.50;99.90;;;;;;5052102;28;19979;-69
2023/12/05 11:33:53;;;;;;;;;;;4.50;99.90;;;;;;5054471;28;19932;-69
2023/12/05 11:36:27;;;;;;;;;;;4.40;99.90;;;;;;5050840;28;19932;-68
2023/12/05 11:38:55;;;;;;;;;;;4.40;99.90;;;;;;5049704;28;19932;-68
2023/12/05 11:41:22;;;;;;;;;;;4.40;99.90;;;;;;5050618;28;20363;-71
2023/12/05 11:44:08;;;;;;;;;;;4.50;99.90;;;;;;5053847;28;19925;-69
2023/12/05 11:46:35;;;;;;;;;;;4.50;99.90;;;;;;5048778;28;19978;-69
2023/12/05 11:49:02;;;;;;;;;;;4.50;99.90;;;;;;5053157;28;19924;-69
2023/12/05 11:51:30;;;;;;;;;;;4.50;99.90;;;;;;5050116;28;19933;-69
2023/12/05 11:54:00;;;;;;;;;;;4.60;99.90;;;;;;5054052;28;19925;-67
2023/12/05 11:56:28;;;;;;;;;;;4.50;99.90;;;;;;5041280;28;19979;-67
2023/12/05 11:59:16;;;;;;;;;;;4.50;99.90;;;;;;5047819;28;19932;-68
2023/12/05 12:01:43;;;;;;;;;;;4.60;99.90;;;;;;5048789;28;20297;-68
2023/12/05 12:04:17;;;;;;;;;;;4.70;99.90;;;;;;5058906;28;20015;-67
2023/12/05 12:06:44;;;;;;;;;;;4.60;99.90;;;;;;5043475;28;19976;-68
2023/12/05 12:09:12;;;;;;;;;;;4.60;99.90;;;;;;5042615;28;19998;-68
2023/12/05 12:11:39;;;;;;;;;;;4.60;99.90;;;;;;5061424;28;19970;-67
2023/12/05 12:14:11;;;;;;;;;;;4.60;99.90;;;;;;5047410;28;19968;-69
2023/12/05 12:16:39;;;;;;;;;;;4.70;99.90;;;;;;5050296;28;19925;-68
2023/12/05 12:19:08;;;;;;;;;;;4.70;99.90;;;;;;5049403;28;19994;-68
2023/12/05 12:21:36;;;;;;;;;;;4.60;99.90;;;;;;5040461;28;19932;-68
2023/12/05 12:24:02;;;;;;;;;;;4.60;99.90;;;;;;5051680;28;19931;-69
2023/12/05 12:26:32;;;;;;;;;;;4.60;99.90;;;;;;5045306;28;20269;-69
2023/12/05 12:29:06;;;;;;;;;;;4.60;99.90;;;;;;5045883;28;19937;-69
2023/12/05 12:31:32;;;;;;;;;;;4.60;99.90;;;;;;5035291;28;19956;-68
2023/12/05 12:34:02;;;;;;;;;;;4.60;99.90;;;;;;5032374;28;19961;-68
2023/12/05 12:36:31;;;;;;;;;;;4.60;99.90;;;;;;5032999;28;19925;-69
2023/12/05 12:38:58;;;;;;;;;;;4.70;99.90;;;;;;5037023;28;19944;-68
2023/12/05 12:41:26;;;;;;;;;;;4.80;99.90;;;;;;5050634;28;19929;-69
2023/12/05 12:43:55;;;;;;;;;;;4.70;99.90;;;;;;5044213;28;20019;-68
2023/12/05 12:46:21;;;;;;;;;;;4.70;99.90;;;;;;5049384;28;19979;-68
2023/12/05 12:48:48;;;;;;;;;;;4.70;99.90;;;;;;5038539;28;19998;-70
2023/12/05 12:51:17;;;;;;;;;;;4.80;99.90;;;;;;5049279;28;19978;-69
2023/12/05 12:53:44;;;;;;;;;;;4.80;99.90;;;;;;5042732;28;20384;-69
2023/12/05 12:56:11;;;;;;;;;;;4.80;99.90;;;;;;5048789;28;20391;-69
2023/12/05 12:58:39;;;;;;;;;;;4.90;99.90;;;;;;5048757;28;20002;-68
2023/12/05 13:01:10;;;;;;;;;;;4.90;99.90;;;;;;5046165;28;20008;-68
2023/12/05 13:03:36;;;;;;;;;;;5.00;99.90;;;;;;5059212;28;19958;-69
2023/12/05 13:06:03;;;;;;;;;;;5.00;99.90;;;;;;5037389;28;20018;-68
2023/12/05 13:08:30;;;;;;;;;;;5.00;99.90;;;;;;5039491;28;19929;-68
2023/12/05 13:10:57;;;;;;;;;;;4.90;99.90;;;;;;5052608;28;19925;-68
2023/12/05 13:13:24;;;;;;;;;;;4.90;99.90;;;;;;5045557;28;20338;-69
2023/12/05 13:15:51;;;;;;;;;;;4.90;99.90;;;;;;5045887;28;20002;-69
2023/12/05 13:18:19;;;;;;;;;;;4.90;99.90;;;;;;5047490;28;19929;-69
2023/12/05 13:20:50;;;;;;;;;;;4.90;99.90;;;;;;5044406;28;19979;-69
2023/12/05 13:23:17;;;;;;;;;;;5.00;99.90;;;;;;5047742;28;20287;-71
2023/12/05 13:25:44;;;;;;;;;;;5.10;99.90;;;;;;5047950;28;19925;-68
2023/12/05 13:28:10;;;;;;;;;;;4.90;99.90;;;;;;5042707;28;20063;-68
2023/12/05 13:30:37;;;;;;;;;;;4.80;99.90;;;;;;5039216;28;20011;-68
2023/12/05 13:33:06;;;;;;;;;;;4.90;99.90;;;;;;5049792;28;19925;-69
2023/12/05 13:35:34;;;;;;;;;;;4.90;99.90;;;;;;5039304;28;19978;-69
2023/12/05 13:38:01;;;;;;;;;;;4.80;99.90;;;;;;5050274;28;19994;-69
2023/12/05 13:40:28;;;;;;;;;;;4.80;99.90;;;;;;5049391;28;19933;-69
2023/12/05 13:42:55;;;;;;;;;;;4.80;99.90;;;;;;5044838;28;20009;-69
2023/12/05 13:45:22;;;;;;;;;;;4.80;99.90;;;;;;5039348;28;19968;-69
2023/12/05 13:47:48;;;;;;;;;;;4.80;99.90;;;;;;5040033;28;19994;-69
2023/12/05 13:50:15;;;;;;;;;;;4.80;99.90;;;;;;5050022;28;20387;-69
2023/12/05 13:52:43;;;;;;;;;;;4.80;99.90;;;;;;5041395;28;19948;-69
2023/12/05 13:55:10;;;;;;;;;;;4.80;99.90;;;;;;5039806;28;20339;-69
2023/12/05 13:57:37;;;;;;;;;;;4.90;99.90;;;;;;5055778;28;20025;-68
2023/12/05 14:00:05;;;;;;;;;;;4.90;99.90;;;;;;5048252;28;19931;-70
2023/12/05 14:02:33;;;;;;;;;;;4.80;99.90;;;;;;5047636;28;20379;-69
2023/12/05 14:04:59;;;;;;;;;;;4.80;99.90;;;;;;5049169;28;19925;-70
2023/12/05 14:07:27;;;;;;;;;;;4.80;99.90;;;;;;5041938;28;19932;-69
2023/12/05 14:09:55;;;;;;;;;;;4.80;99.90;;;;;;5037197;28;19931;-68
2023/12/05 14:12:21;;;;;;;;;;;4.80;99.90;;;;;;5045912;28;19925;-69
2023/12/05 14:14:48;;;;;;;;;;;4.90;99.90;;;;;;5052899;28;19925;-68
2023/12/05 14:17:17;;;;;;;;;;;4.90;99.90;;;;;;5045710;28;19929;-68
2023/12/05 14:19:44;;;;;;;;;;;4.90;99.90;;;;;;5042560;28;19925;-69
2023/12/05 14:22:11;;;;;;;;;;;5.00;99.90;;;;;;5051181;28;19982;-68
2023/12/05 14:24:38;;;;;;;;;;;5.00;99.90;;;;;;5043882;28;19968;-70
2023/12/05 14:27:06;;;;;;;;;;;5.00;99.90;;;;;;5050175;28;19963;-69
2023/12/05 14:29:33;;;;;;;;;;;5.00;99.90;;;;;;5042052;28;20016;-68
2023/12/05 14:32:00;;;;;;;;;;;4.90;99.90;;;;;;5047905;28;19933;-68
2023/12/05 14:34:27;;;;;;;;;;;4.90;99.90;;;;;;5041280;28;20413;-68
2023/12/05 14:36:54;;;;;;;;;;;4.80;99.90;;;;;;5052682;28;19924;-69